sensor_id;sensor_type;location;lat;lon;timestamp;P1;durP1;ratioP1;P2;durP2;ratioP2
6985;SDS011;3533;51.246;6.850;2023-03-01T00:01:54;4.50;;;4.20;;
6985;SDS011;3533;51.246;6.850;2023-03-01T00:04:19;3.43;;;3.23;;
6985;SDS011;3533;51.246;6.850;2023-03-01T00:06:45;3.57;;;3.37;;
6985;SDS011;3533;51.246;6.850;2023-03-01T00:09:11;3.67;;;3.37;;
6985;SDS011;3533;51.246;6.850;2023-03-01T00:11:38;3.10;;;2.90;;
6985;SDS011;3533;51.246;6.850;2023-03-01T00:14:03;3.43;;;3.13;;
6985;SDS011;3533;51.246;6.850;2023-03-01T00:16:33;3.70;;;3.47;;
6985;SDS011;3533;51.246;6.850;2023-03-01T00:19:02;3.70;;;3.40;;
6985;SDS011;3533;51.246;6.850;2023-03-01T00:21:27;3.33;;;3.03;;
6985;SDS011;3533;51.246;6.850;2023-03-01T00:23:53;3.47;;;3.17;;
6985;SDS011;3533;51.246;6.850;2023-03-01T00:26:20;3.80;;;3.60;;
6985;SDS011;3533;51.246;6.850;2023-03-01T00:28:47;3.77;;;3.57;;
6985;SDS011;3533;51.246;6.850;2023-03-01T00:31:14;3.90;;;3.50;;
6985;SDS011;3533;51.246;6.850;2023-03-01T00:33:41;3.40;;;3.10;;
6985;SDS011;3533;51.246;6.850;2023-03-01T00:36:07;3.40;;;3.20;;
6985;SDS011;3533;51.246;6.850;2023-03-01T00:38:35;2.90;;;2.70;;
6985;SDS011;3533;51.246;6.850;2023-03-01T00:41:05;3.10;;;2.90;;
6985;SDS011;3533;51.246;6.850;2023-03-01T00:43:32;3.50;;;3.30;;
6985;SDS011;3533;51.246;6.850;2023-03-01T00:46:23;3.33;;;3.13;;
6985;SDS011;3533;51.246;6.850;2023-03-01T00:48:48;3.13;;;2.93;;
6985;SDS011;3533;51.246;6.850;2023-03-01T00:51:18;3.30;;;3.10;;
6985;SDS011;3533;51.246;6.850;2023-03-01T00:53:52;3.53;;;3.33;;
6985;SDS011;3533;51.246;6.850;2023-03-01T00:56:23;3.40;;;3.20;;
6985;SDS011;3533;51.246;6.850;2023-03-01T00:58:49;3.40;;;3.10;;
6985;SDS011;3533;51.246;6.850;2023-03-01T01:01:16;2.63;;;2.53;;
6985;SDS011;3533;51.246;6.850;2023-03-01T01:03:54;3.47;;;3.27;;
6985;SDS011;3533;51.246;6.850;2023-03-01T01:06:29;2.90;;;2.70;;
6985;SDS011;3533;51.246;6.850;2023-03-01T01:08:57;3.50;;;3.20;;
6985;SDS011;3533;51.246;6.850;2023-03-01T01:11:23;3.30;;;3.10;;
6985;SDS011;3533;51.246;6.850;2023-03-01T01:13:51;3.33;;;3.13;;
6985;SDS011;3533;51.246;6.850;2023-03-01T01:16:17;3.33;;;3.13;;
6985;SDS011;3533;51.246;6.850;2023-03-01T01:18:44;3.67;;;3.47;;
6985;SDS011;3533;51.246;6.850;2023-03-01T01:21:11;2.93;;;2.73;;
6985;SDS011;3533;51.246;6.850;2023-03-01T01:23:39;3.67;;;3.40;;
6985;SDS011;3533;51.246;6.850;2023-03-01T01:26:06;2.90;;;2.70;;
6985;SDS011;3533;51.246;6.850;2023-03-01T01:28:32;3.47;;;3.27;;
6985;SDS011;3533;51.246;6.850;2023-03-01T01:30:58;3.50;;;3.30;;
6985;SDS011;3533;51.246;6.850;2023-03-01T01:33:24;3.23;;;3.03;;
6985;SDS011;3533;51.246;6.850;2023-03-01T01:35:50;3.20;;;3.00;;
6985;SDS011;3533;51.246;6.850;2023-03-01T01:38:15;3.13;;;2.93;;
6985;SDS011;3533;51.246;6.850;2023-03-01T01:40:44;3.10;;;2.90;;
6985;SDS011;3533;51.246;6.850;2023-03-01T01:43:18;2.87;;;2.67;;
6985;SDS011;3533;51.246;6.850;2023-03-01T01:45:50;3.43;;;3.23;;
6985;SDS011;3533;51.246;6.850;2023-03-01T01:48:20;3.13;;;2.93;;
6985;SDS011;3533;51.246;6.850;2023-03-01T01:50:58;2.93;;;2.73;;
6985;SDS011;3533;51.246;6.850;2023-03-01T01:53:26;4.77;;;3.17;;
6985;SDS011;3533;51.246;6.850;2023-03-01T01:55:53;3.17;;;2.97;;
6985;SDS011;3533;51.246;6.850;2023-03-01T01:58:22;3.17;;;2.87;;
6985;SDS011;3533;51.246;6.850;2023-03-01T02:00:52;2.90;;;2.70;;
6985;SDS011;3533;51.246;6.850;2023-03-01T02:03:23;3.23;;;3.03;;
6985;SDS011;3533;51.246;6.850;2023-03-01T02:05:56;7.90;;;2.90;;
6985;SDS011;3533;51.246;6.850;2023-03-01T02:08:31;2.77;;;2.57;;
6985;SDS011;3533;51.246;6.850;2023-03-01T02:11:01;2.97;;;2.77;;
6985;SDS011;3533;51.246;6.850;2023-03-01T02:13:29;2.93;;;2.73;;
6985;SDS011;3533;51.246;6.850;2023-03-01T02:15:56;2.87;;;2.60;;
6985;SDS011;3533;51.246;6.850;2023-03-01T02:18:21;2.87;;;2.67;;
6985;SDS011;3533;51.246;6.850;2023-03-01T02:21:05;3.30;;;3.10;;
6985;SDS011;3533;51.246;6.850;2023-03-01T02:23:35;2.80;;;2.60;;
6985;SDS011;3533;51.246;6.850;2023-03-01T02:26:03;3.10;;;2.90;;
6985;SDS011;3533;51.246;6.850;2023-03-01T02:28:50;3.20;;;3.00;;
6985;SDS011;3533;51.246;6.850;2023-03-01T02:31:17;2.77;;;2.57;;
6985;SDS011;3533;51.246;6.850;2023-03-01T02:34:03;2.57;;;2.47;;
6985;SDS011;3533;51.246;6.850;2023-03-01T02:36:32;3.10;;;2.90;;
6985;SDS011;3533;51.246;6.850;2023-03-01T02:39:02;2.60;;;2.50;;
6985;SDS011;3533;51.246;6.850;2023-03-01T02:41:31;2.40;;;2.23;;
6985;SDS011;3533;51.246;6.850;2023-03-01T02:44:02;2.83;;;2.63;;
6985;SDS011;3533;51.246;6.850;2023-03-01T02:46:28;2.87;;;2.67;;
6985;SDS011;3533;51.246;6.850;2023-03-01T02:48:55;3.10;;;2.43;;
6985;SDS011;3533;51.246;6.850;2023-03-01T02:51:26;3.00;;;2.80;;
6985;SDS011;3533;51.246;6.850;2023-03-01T02:54:25;2.90;;;2.70;;
6985;SDS011;3533;51.246;6.850;2023-03-01T02:57:25;3.17;;;2.97;;
6985;SDS011;3533;51.246;6.850;2023-03-01T02:59:52;2.80;;;2.60;;
6985;SDS011;3533;51.246;6.850;2023-03-01T03:02:23;2.33;;;2.23;;
6985;SDS011;3533;51.246;6.850;2023-03-01T03:07:38;2.80;;;2.70;;
6985;SDS011;3533;51.246;6.850;2023-03-01T03:10:06;3.13;;;2.93;;
6985;SDS011;3533;51.246;6.850;2023-03-01T03:12:36;2.50;;;2.40;;
6985;SDS011;3533;51.246;6.850;2023-03-01T03:15:03;2.60;;;2.47;;
6985;SDS011;3533;51.246;6.850;2023-03-01T03:17:33;3.00;;;2.80;;
6985;SDS011;3533;51.246;6.850;2023-03-01T03:20:00;3.20;;;3.00;;
6985;SDS011;3533;51.246;6.850;2023-03-01T03:22:26;3.03;;;2.83;;
6985;SDS011;3533;51.246;6.850;2023-03-01T03:24:53;3.37;;;3.07;;
6985;SDS011;3533;51.246;6.850;2023-03-01T03:27:19;2.90;;;2.70;;
6985;SDS011;3533;51.246;6.850;2023-03-01T03:29:44;2.70;;;2.50;;
6985;SDS011;3533;51.246;6.850;2023-03-01T03:32:10;2.53;;;2.33;;
6985;SDS011;3533;51.246;6.850;2023-03-01T03:34:35;2.60;;;2.40;;
6985;SDS011;3533;51.246;6.850;2023-03-01T03:37:01;2.83;;;2.63;;
6985;SDS011;3533;51.246;6.850;2023-03-01T03:39:28;2.53;;;2.43;;
6985;SDS011;3533;51.246;6.850;2023-03-01T03:41:59;2.93;;;2.73;;
6985;SDS011;3533;51.246;6.850;2023-03-01T03:44:25;3.80;;;3.50;;
6985;SDS011;3533;51.246;6.850;2023-03-01T03:46:50;2.47;;;2.37;;
6985;SDS011;3533;51.246;6.850;2023-03-01T03:49:16;3.10;;;2.80;;
6985;SDS011;3533;51.246;6.850;2023-03-01T03:51:41;2.77;;;2.57;;
6985;SDS011;3533;51.246;6.850;2023-03-01T03:54:07;3.20;;;3.00;;
6985;SDS011;3533;51.246;6.850;2023-03-01T03:56:32;2.40;;;2.30;;
6985;SDS011;3533;51.246;6.850;2023-03-01T03:58:58;2.40;;;2.30;;
6985;SDS011;3533;51.246;6.850;2023-03-01T04:01:23;2.50;;;2.30;;
6985;SDS011;3533;51.246;6.850;2023-03-01T04:03:49;3.10;;;2.90;;
6985;SDS011;3533;51.246;6.850;2023-03-01T04:06:19;2.60;;;2.40;;
6985;SDS011;3533;51.246;6.850;2023-03-01T04:08:45;2.70;;;2.50;;
6985;SDS011;3533;51.246;6.850;2023-03-01T04:11:10;2.43;;;2.30;;
6985;SDS011;3533;51.246;6.850;2023-03-01T04:13:52;2.47;;;2.37;;
6985;SDS011;3533;51.246;6.850;2023-03-01T04:16:19;3.10;;;2.90;;
6985;SDS011;3533;51.246;6.850;2023-03-01T04:18:45;3.00;;;2.80;;
6985;SDS011;3533;51.246;6.850;2023-03-01T04:21:11;2.60;;;2.43;;
6985;SDS011;3533;51.246;6.850;2023-03-01T04:23:37;2.97;;;2.67;;
6985;SDS011;3533;51.246;6.850;2023-03-01T04:26:03;2.77;;;2.60;;
6985;SDS011;3533;51.246;6.850;2023-03-01T04:28:30;2.23;;;2.13;;
6985;SDS011;3533;51.246;6.850;2023-03-01T04:31:01;2.80;;;2.60;;
6985;SDS011;3533;51.246;6.850;2023-03-01T04:33:37;3.20;;;2.73;;
6985;SDS011;3533;51.246;6.850;2023-03-01T04:36:09;2.47;;;2.37;;
6985;SDS011;3533;51.246;6.850;2023-03-01T04:38:39;2.50;;;2.40;;
6985;SDS011;3533;51.246;6.850;2023-03-01T04:41:09;2.57;;;2.47;;
6985;SDS011;3533;51.246;6.850;2023-03-01T04:43:36;2.90;;;2.70;;
6985;SDS011;3533;51.246;6.850;2023-03-01T04:46:03;2.40;;;2.30;;
6985;SDS011;3533;51.246;6.850;2023-03-01T04:48:32;2.73;;;2.63;;
6985;SDS011;3533;51.246;6.850;2023-03-01T04:51:00;2.50;;;2.40;;
6985;SDS011;3533;51.246;6.850;2023-03-01T04:53:26;2.27;;;2.17;;
6985;SDS011;3533;51.246;6.850;2023-03-01T04:55:53;2.50;;;2.30;;
6985;SDS011;3533;51.246;6.850;2023-03-01T04:58:23;2.77;;;2.17;;
6985;SDS011;3533;51.246;6.850;2023-03-01T05:00:49;2.47;;;2.27;;
6985;SDS011;3533;51.246;6.850;2023-03-01T05:03:15;2.90;;;2.70;;
6985;SDS011;3533;51.246;6.850;2023-03-01T05:05:43;2.60;;;2.40;;
6985;SDS011;3533;51.246;6.850;2023-03-01T05:08:10;2.73;;;2.53;;
6985;SDS011;3533;51.246;6.850;2023-03-01T05:10:42;2.10;;;2.00;;
6985;SDS011;3533;51.246;6.850;2023-03-01T05:13:10;2.20;;;2.10;;
6985;SDS011;3533;51.246;6.850;2023-03-01T05:15:38;2.77;;;2.57;;
6985;SDS011;3533;51.246;6.850;2023-03-01T05:18:03;2.73;;;2.60;;
6985;SDS011;3533;51.246;6.850;2023-03-01T05:20:32;2.70;;;2.50;;
6985;SDS011;3533;51.246;6.850;2023-03-01T05:23:01;2.60;;;2.37;;
6985;SDS011;3533;51.246;6.850;2023-03-01T05:25:30;2.70;;;2.50;;
6985;SDS011;3533;51.246;6.850;2023-03-01T05:27:57;2.57;;;2.37;;
6985;SDS011;3533;51.246;6.850;2023-03-01T05:30:30;2.27;;;2.17;;
6985;SDS011;3533;51.246;6.850;2023-03-01T05:32:57;2.50;;;2.40;;
6985;SDS011;3533;51.246;6.850;2023-03-01T05:35:23;3.23;;;3.03;;
6985;SDS011;3533;51.246;6.850;2023-03-01T05:37:49;2.27;;;2.17;;
6985;SDS011;3533;51.246;6.850;2023-03-01T05:40:16;2.43;;;2.33;;
6985;SDS011;3533;51.246;6.850;2023-03-01T05:42:53;2.37;;;2.20;;
6985;SDS011;3533;51.246;6.850;2023-03-01T05:45:21;2.20;;;2.10;;
6985;SDS011;3533;51.246;6.850;2023-03-01T05:47:48;2.50;;;2.30;;
6985;SDS011;3533;51.246;6.850;2023-03-01T05:50:15;2.20;;;2.10;;
6985;SDS011;3533;51.246;6.850;2023-03-01T05:52:46;2.53;;;2.33;;
6985;SDS011;3533;51.246;6.850;2023-03-01T05:55:16;2.53;;;2.37;;
6985;SDS011;3533;51.246;6.850;2023-03-01T05:57:43;2.33;;;2.23;;
6985;SDS011;3533;51.246;6.850;2023-03-01T06:00:09;2.30;;;2.20;;
6985;SDS011;3533;51.246;6.850;2023-03-01T06:02:36;2.20;;;2.10;;
6985;SDS011;3533;51.246;6.850;2023-03-01T06:05:03;3.00;;;2.63;;
6985;SDS011;3533;51.246;6.850;2023-03-01T06:07:29;2.20;;;2.10;;
6985;SDS011;3533;51.246;6.850;2023-03-01T06:09:55;2.00;;;1.90;;
6985;SDS011;3533;51.246;6.850;2023-03-01T06:12:20;2.40;;;2.30;;
6985;SDS011;3533;51.246;6.850;2023-03-01T06:14:46;2.23;;;2.13;;
6985;SDS011;3533;51.246;6.850;2023-03-01T06:17:14;2.27;;;2.17;;
6985;SDS011;3533;51.246;6.850;2023-03-01T06:19:40;2.43;;;2.23;;
6985;SDS011;3533;51.246;6.850;2023-03-01T06:22:05;1.80;;;1.70;;
6985;SDS011;3533;51.246;6.850;2023-03-01T06:24:31;1.90;;;1.80;;
6985;SDS011;3533;51.246;6.850;2023-03-01T06:26:58;2.20;;;2.10;;
6985;SDS011;3533;51.246;6.850;2023-03-01T06:29:23;2.13;;;2.03;;
6985;SDS011;3533;51.246;6.850;2023-03-01T06:31:49;2.37;;;2.27;;
6985;SDS011;3533;51.246;6.850;2023-03-01T06:34:14;2.50;;;2.30;;
6985;SDS011;3533;51.246;6.850;2023-03-01T06:36:40;2.50;;;2.40;;
6985;SDS011;3533;51.246;6.850;2023-03-01T06:39:06;2.13;;;2.03;;
6985;SDS011;3533;51.246;6.850;2023-03-01T06:41:32;2.87;;;2.67;;
6985;SDS011;3533;51.246;6.850;2023-03-01T06:43:58;3.87;;;3.00;;
6985;SDS011;3533;51.246;6.850;2023-03-01T06:46:24;2.53;;;2.43;;
6985;SDS011;3533;51.246;6.850;2023-03-01T06:48:50;2.97;;;2.77;;
6985;SDS011;3533;51.246;6.850;2023-03-01T06:51:15;2.40;;;2.20;;
6985;SDS011;3533;51.246;6.850;2023-03-01T06:53:41;2.60;;;2.40;;
6985;SDS011;3533;51.246;6.850;2023-03-01T06:56:06;2.10;;;2.00;;
6985;SDS011;3533;51.246;6.850;2023-03-01T06:58:32;2.27;;;2.17;;
6985;SDS011;3533;51.246;6.850;2023-03-01T07:00:58;3.03;;;2.73;;
6985;SDS011;3533;51.246;6.850;2023-03-01T07:03:23;2.10;;;2.00;;
6985;SDS011;3533;51.246;6.850;2023-03-01T07:05:49;2.37;;;2.20;;
6985;SDS011;3533;51.246;6.850;2023-03-01T07:08:17;2.60;;;2.50;;
6985;SDS011;3533;51.246;6.850;2023-03-01T07:10:43;2.40;;;2.30;;
6985;SDS011;3533;51.246;6.850;2023-03-01T07:13:09;2.47;;;2.37;;
6985;SDS011;3533;51.246;6.850;2023-03-01T07:15:34;2.43;;;2.23;;
6985;SDS011;3533;51.246;6.850;2023-03-01T07:18:00;2.53;;;2.33;;
6985;SDS011;3533;51.246;6.850;2023-03-01T07:20:26;2.63;;;2.43;;
6985;SDS011;3533;51.246;6.850;2023-03-01T07:22:52;2.60;;;2.40;;
6985;SDS011;3533;51.246;6.850;2023-03-01T07:25:18;2.83;;;2.43;;
6985;SDS011;3533;51.246;6.850;2023-03-01T07:27:43;2.40;;;2.20;;
6985;SDS011;3533;51.246;6.850;2023-03-01T07:30:13;2.70;;;2.50;;
6985;SDS011;3533;51.246;6.850;2023-03-01T07:32:39;3.13;;;2.93;;
6985;SDS011;3533;51.246;6.850;2023-03-01T07:35:04;2.40;;;2.27;;
6985;SDS011;3533;51.246;6.850;2023-03-01T07:37:30;2.60;;;2.40;;
6985;SDS011;3533;51.246;6.850;2023-03-01T07:39:56;2.67;;;2.53;;
6985;SDS011;3533;51.246;6.850;2023-03-01T07:42:22;2.60;;;2.10;;
6985;SDS011;3533;51.246;6.850;2023-03-01T07:44:48;3.17;;;2.97;;
6985;SDS011;3533;51.246;6.850;2023-03-01T07:47:13;2.20;;;2.10;;
6985;SDS011;3533;51.246;6.850;2023-03-01T07:49:39;2.70;;;2.50;;
6985;SDS011;3533;51.246;6.850;2023-03-01T07:52:04;2.50;;;2.13;;
6985;SDS011;3533;51.246;6.850;2023-03-01T07:54:30;2.00;;;1.90;;
6985;SDS011;3533;51.246;6.850;2023-03-01T07:56:56;2.30;;;2.20;;
6985;SDS011;3533;51.246;6.850;2023-03-01T07:59:22;2.73;;;2.53;;
6985;SDS011;3533;51.246;6.850;2023-03-01T08:01:53;2.07;;;1.97;;
6985;SDS011;3533;51.246;6.850;2023-03-01T08:04:19;2.30;;;2.20;;
6985;SDS011;3533;51.246;6.850;2023-03-01T08:06:45;2.10;;;2.00;;
6985;SDS011;3533;51.246;6.850;2023-03-01T08:09:10;2.17;;;1.90;;
6985;SDS011;3533;51.246;6.850;2023-03-01T08:11:36;2.70;;;2.50;;
6985;SDS011;3533;51.246;6.850;2023-03-01T08:14:02;2.80;;;2.60;;
6985;SDS011;3533;51.246;6.850;2023-03-01T08:16:28;5.73;;;2.33;;
6985;SDS011;3533;51.246;6.850;2023-03-01T08:18:53;2.60;;;2.30;;
6985;SDS011;3533;51.246;6.850;2023-03-01T08:21:21;2.70;;;2.27;;
6985;SDS011;3533;51.246;6.850;2023-03-01T08:23:47;2.90;;;2.40;;
6985;SDS011;3533;51.246;6.850;2023-03-01T08:26:19;3.83;;;2.87;;
6985;SDS011;3533;51.246;6.850;2023-03-01T08:28:46;3.27;;;2.37;;
6985;SDS011;3533;51.246;6.850;2023-03-01T08:31:13;2.63;;;2.43;;
6985;SDS011;3533;51.246;6.850;2023-03-01T08:33:47;2.13;;;2.03;;
6985;SDS011;3533;51.246;6.850;2023-03-01T08:36:16;6.57;;;2.50;;
6985;SDS011;3533;51.246;6.850;2023-03-01T08:38:43;7.53;;;2.77;;
6985;SDS011;3533;51.246;6.850;2023-03-01T08:41:09;3.77;;;2.70;;
6985;SDS011;3533;51.246;6.850;2023-03-01T08:43:34;2.57;;;2.37;;
6985;SDS011;3533;51.246;6.850;2023-03-01T08:46:00;2.80;;;2.60;;
6985;SDS011;3533;51.246;6.850;2023-03-01T08:48:27;2.70;;;2.50;;
6985;SDS011;3533;51.246;6.850;2023-03-01T08:50:53;2.50;;;2.37;;
6985;SDS011;3533;51.246;6.850;2023-03-01T08:53:18;3.20;;;2.90;;
6985;SDS011;3533;51.246;6.850;2023-03-01T08:55:44;4.33;;;2.20;;
6985;SDS011;3533;51.246;6.850;2023-03-01T08:58:10;2.77;;;2.57;;
6985;SDS011;3533;51.246;6.850;2023-03-01T09:00:35;3.87;;;2.50;;
6985;SDS011;3533;51.246;6.850;2023-03-01T09:03:01;2.30;;;2.20;;
6985;SDS011;3533;51.246;6.850;2023-03-01T09:05:27;2.50;;;2.40;;
6985;SDS011;3533;51.246;6.850;2023-03-01T09:07:52;2.70;;;2.50;;
6985;SDS011;3533;51.246;6.850;2023-03-01T09:10:18;10.23;;;2.40;;
6985;SDS011;3533;51.246;6.850;2023-03-01T09:12:43;2.20;;;2.00;;
6985;SDS011;3533;51.246;6.850;2023-03-01T09:15:09;2.27;;;2.07;;
6985;SDS011;3533;51.246;6.850;2023-03-01T09:17:35;2.40;;;2.20;;
6985;SDS011;3533;51.246;6.850;2023-03-01T09:20:00;2.30;;;2.20;;
6985;SDS011;3533;51.246;6.850;2023-03-01T09:22:26;2.70;;;2.50;;
6985;SDS011;3533;51.246;6.850;2023-03-01T09:24:51;2.40;;;2.30;;
6985;SDS011;3533;51.246;6.850;2023-03-01T09:27:17;2.20;;;2.00;;
6985;SDS011;3533;51.246;6.850;2023-03-01T09:29:44;2.30;;;2.20;;
6985;SDS011;3533;51.246;6.850;2023-03-01T09:32:09;2.37;;;2.27;;
6985;SDS011;3533;51.246;6.850;2023-03-01T09:34:35;2.50;;;2.30;;
6985;SDS011;3533;51.246;6.850;2023-03-01T09:37:23;2.03;;;1.93;;
6985;SDS011;3533;51.246;6.850;2023-03-01T09:39:49;2.37;;;2.27;;
6985;SDS011;3533;51.246;6.850;2023-03-01T09:42:14;3.30;;;2.50;;
6985;SDS011;3533;51.246;6.850;2023-03-01T09:47:26;2.37;;;2.20;;
6985;SDS011;3533;51.246;6.850;2023-03-01T09:50:11;2.30;;;2.20;;
6985;SDS011;3533;51.246;6.850;2023-03-01T09:52:40;2.43;;;2.23;;
6985;SDS011;3533;51.246;6.850;2023-03-01T09:55:29;2.30;;;2.20;;
6985;SDS011;3533;51.246;6.850;2023-03-01T09:58:46;2.30;;;2.20;;
6985;SDS011;3533;51.246;6.850;2023-03-01T10:00:49;2.43;;;2.20;;
6985;SDS011;3533;51.246;6.850;2023-03-01T10:03:16;2.20;;;2.00;;
6985;SDS011;3533;51.246;6.850;2023-03-01T10:05:59;2.47;;;2.37;;
6985;SDS011;3533;51.246;6.850;2023-03-01T10:11:03;2.43;;;2.27;;
6985;SDS011;3533;51.246;6.850;2023-03-01T10:13:46;2.43;;;2.23;;
6985;SDS011;3533;51.246;6.850;2023-03-01T10:19:10;2.10;;;2.00;;
6985;SDS011;3533;51.246;6.850;2023-03-01T10:21:41;2.33;;;2.17;;
6985;SDS011;3533;51.246;6.850;2023-03-01T10:24:11;2.17;;;2.07;;
6985;SDS011;3533;51.246;6.850;2023-03-01T10:26:50;2.40;;;2.20;;
6985;SDS011;3533;51.246;6.850;2023-03-01T10:29:25;2.57;;;2.33;;
6985;SDS011;3533;51.246;6.850;2023-03-01T10:31:59;2.27;;;2.17;;
6985;SDS011;3533;51.246;6.850;2023-03-01T10:34:29;2.27;;;2.17;;
6985;SDS011;3533;51.246;6.850;2023-03-01T10:36:58;2.57;;;2.47;;
6985;SDS011;3533;51.246;6.850;2023-03-01T10:39:34;2.40;;;2.30;;
6985;SDS011;3533;51.246;6.850;2023-03-01T10:42:00;2.50;;;2.30;;
6985;SDS011;3533;51.246;6.850;2023-03-01T10:44:42;2.60;;;2.47;;
6985;SDS011;3533;51.246;6.850;2023-03-01T10:47:13;2.30;;;2.10;;
6985;SDS011;3533;51.246;6.850;2023-03-01T10:49:52;2.10;;;2.00;;
6985;SDS011;3533;51.246;6.850;2023-03-01T10:52:20;2.20;;;2.10;;
6985;SDS011;3533;51.246;6.850;2023-03-01T10:54:55;2.30;;;2.20;;
6985;SDS011;3533;51.246;6.850;2023-03-01T11:00:17;2.20;;;2.10;;
6985;SDS011;3533;51.246;6.850;2023-03-01T11:02:51;2.10;;;2.00;;
6985;SDS011;3533;51.246;6.850;2023-03-01T11:05:28;2.37;;;1.97;;
6985;SDS011;3533;51.246;6.850;2023-03-01T11:07:58;2.90;;;2.70;;
6985;SDS011;3533;51.246;6.850;2023-03-01T11:10:32;2.37;;;2.27;;
6985;SDS011;3533;51.246;6.850;2023-03-01T11:13:06;2.37;;;2.27;;
6985;SDS011;3533;51.246;6.850;2023-03-01T11:15:42;2.50;;;2.30;;
6985;SDS011;3533;51.246;6.850;2023-03-01T11:18:19;2.57;;;2.43;;
6985;SDS011;3533;51.246;6.850;2023-03-01T11:20:46;2.57;;;2.37;;
6985;SDS011;3533;51.246;6.850;2023-03-01T11:23:14;3.50;;;1.80;;
6985;SDS011;3533;51.246;6.850;2023-03-01T11:25:42;2.03;;;1.93;;
6985;SDS011;3533;51.246;6.850;2023-03-01T11:28:14;2.00;;;1.90;;
6985;SDS011;3533;51.246;6.850;2023-03-01T11:36:13;2.00;;;1.90;;
6985;SDS011;3533;51.246;6.850;2023-03-01T11:38:41;2.00;;;1.90;;
6985;SDS011;3533;51.246;6.850;2023-03-01T11:41:15;1.83;;;1.73;;
6985;SDS011;3533;51.246;6.850;2023-03-01T11:43:54;2.10;;;2.00;;
6985;SDS011;3533;51.246;6.850;2023-03-01T11:58:07;1.97;;;1.87;;
6985;SDS011;3533;51.246;6.850;2023-03-01T12:06:35;2.10;;;2.00;;
6985;SDS011;3533;51.246;6.850;2023-03-01T12:12:42;2.10;;;2.00;;
6985;SDS011;3533;51.246;6.850;2023-03-01T12:18:29;1.90;;;1.80;;
6985;SDS011;3533;51.246;6.850;2023-03-01T12:21:21;2.10;;;2.00;;
6985;SDS011;3533;51.246;6.850;2023-03-01T12:24:21;2.30;;;2.20;;
6985;SDS011;3533;51.246;6.850;2023-03-01T12:29:36;1.87;;;1.77;;
6985;SDS011;3533;51.246;6.850;2023-03-01T12:34:59;5.90;;;2.63;;
6985;SDS011;3533;51.246;6.850;2023-03-01T12:40:19;2.60;;;2.00;;
6985;SDS011;3533;51.246;6.850;2023-03-01T12:43:03;2.10;;;2.00;;
6985;SDS011;3533;51.246;6.850;2023-03-01T12:45:50;2.23;;;2.10;;
6985;SDS011;3533;51.246;6.850;2023-03-01T12:48:40;2.60;;;2.00;;
6985;SDS011;3533;51.246;6.850;2023-03-01T12:51:16;4.60;;;2.40;;
6985;SDS011;3533;51.246;6.850;2023-03-01T12:53:48;2.97;;;2.60;;
6985;SDS011;3533;51.246;6.850;2023-03-01T12:56:23;9.73;;;2.20;;
6985;SDS011;3533;51.246;6.850;2023-03-01T12:58:57;2.93;;;2.67;;
6985;SDS011;3533;51.246;6.850;2023-03-01T13:09:54;2.23;;;2.03;;
6985;SDS011;3533;51.246;6.850;2023-03-01T13:20:32;2.17;;;2.00;;
6985;SDS011;3533;51.246;6.850;2023-03-01T13:23:13;3.10;;;2.80;;
6985;SDS011;3533;51.246;6.850;2023-03-01T13:33:43;2.10;;;2.00;;
6985;SDS011;3533;51.246;6.850;2023-03-01T13:36:11;2.17;;;2.07;;
6985;SDS011;3533;51.246;6.850;2023-03-01T13:46:49;2.30;;;2.10;;
6985;SDS011;3533;51.246;6.850;2023-03-01T13:49:23;2.10;;;1.90;;
6985;SDS011;3533;51.246;6.850;2023-03-01T13:51:52;2.40;;;1.90;;
6985;SDS011;3533;51.246;6.850;2023-03-01T13:54:31;1.73;;;1.63;;
6985;SDS011;3533;51.246;6.850;2023-03-01T13:56:58;3.13;;;2.30;;
6985;SDS011;3533;51.246;6.850;2023-03-01T13:59:25;2.20;;;2.10;;
6985;SDS011;3533;51.246;6.850;2023-03-01T14:01:59;1.83;;;1.73;;
6985;SDS011;3533;51.246;6.850;2023-03-01T14:04:26;2.20;;;1.87;;
6985;SDS011;3533;51.246;6.850;2023-03-01T14:09:45;1.83;;;1.73;;
6985;SDS011;3533;51.246;6.850;2023-03-01T14:20:14;2.40;;;2.20;;
6985;SDS011;3533;51.246;6.850;2023-03-01T14:22:44;2.47;;;2.27;;
6985;SDS011;3533;51.246;6.850;2023-03-01T14:25:30;2.00;;;1.90;;
6985;SDS011;3533;51.246;6.850;2023-03-01T14:30:44;2.20;;;1.80;;
6985;SDS011;3533;51.246;6.850;2023-03-01T14:35:52;2.00;;;1.90;;
6985;SDS011;3533;51.246;6.850;2023-03-01T14:38:40;2.10;;;1.97;;
6985;SDS011;3533;51.246;6.850;2023-03-01T14:41:14;2.00;;;1.90;;
6985;SDS011;3533;51.246;6.850;2023-03-01T14:43:46;2.10;;;2.00;;
6985;SDS011;3533;51.246;6.850;2023-03-01T14:49:14;2.30;;;1.83;;
6985;SDS011;3533;51.246;6.850;2023-03-01T14:51:51;2.30;;;2.20;;
6985;SDS011;3533;51.246;6.850;2023-03-01T14:54:27;2.33;;;1.80;;
6985;SDS011;3533;51.246;6.850;2023-03-01T14:57:05;1.87;;;1.77;;
6985;SDS011;3533;51.246;6.850;2023-03-01T14:59:32;2.30;;;1.77;;
6985;SDS011;3533;51.246;6.850;2023-03-01T15:01:59;2.00;;;1.90;;
6985;SDS011;3533;51.246;6.850;2023-03-01T15:04:26;2.13;;;1.93;;
6985;SDS011;3533;51.246;6.850;2023-03-01T15:06:53;2.30;;;2.10;;
6985;SDS011;3533;51.246;6.850;2023-03-01T15:09:20;2.00;;;1.90;;
6985;SDS011;3533;51.246;6.850;2023-03-01T15:11:47;1.90;;;1.80;;
6985;SDS011;3533;51.246;6.850;2023-03-01T15:14:36;2.50;;;2.30;;
6985;SDS011;3533;51.246;6.850;2023-03-01T15:20:13;2.03;;;1.93;;
6985;SDS011;3533;51.246;6.850;2023-03-01T15:22:45;2.27;;;2.07;;
6985;SDS011;3533;51.246;6.850;2023-03-01T15:25:16;3.50;;;2.20;;
6985;SDS011;3533;51.246;6.850;2023-03-01T15:27:48;1.93;;;1.83;;
6985;SDS011;3533;51.246;6.850;2023-03-01T15:30:19;2.00;;;1.90;;
6985;SDS011;3533;51.246;6.850;2023-03-01T15:32:48;2.80;;;1.87;;
6985;SDS011;3533;51.246;6.850;2023-03-01T15:38:04;1.93;;;1.83;;
6985;SDS011;3533;51.246;6.850;2023-03-01T15:40:51;2.17;;;1.97;;
6985;SDS011;3533;51.246;6.850;2023-03-01T15:46:34;2.20;;;2.10;;
6985;SDS011;3533;51.246;6.850;2023-03-01T15:49:06;3.80;;;2.50;;
6985;SDS011;3533;51.246;6.850;2023-03-01T15:51:51;2.00;;;1.90;;
6985;SDS011;3533;51.246;6.850;2023-03-01T15:54:20;2.10;;;2.00;;
6985;SDS011;3533;51.246;6.850;2023-03-01T15:56:48;1.90;;;1.80;;
6985;SDS011;3533;51.246;6.850;2023-03-01T15:59:14;1.93;;;1.83;;
6985;SDS011;3533;51.246;6.850;2023-03-01T16:01:40;2.20;;;2.10;;
6985;SDS011;3533;51.246;6.850;2023-03-01T16:04:06;1.60;;;1.50;;
6985;SDS011;3533;51.246;6.850;2023-03-01T16:06:34;1.70;;;1.60;;
6985;SDS011;3533;51.246;6.850;2023-03-01T16:09:01;1.80;;;1.70;;
6985;SDS011;3533;51.246;6.850;2023-03-01T16:11:27;2.10;;;2.00;;
6985;SDS011;3533;51.246;6.850;2023-03-01T16:13:53;2.10;;;2.00;;
6985;SDS011;3533;51.246;6.850;2023-03-01T16:16:18;2.30;;;2.10;;
6985;SDS011;3533;51.246;6.850;2023-03-01T16:18:47;1.60;;;1.50;;
6985;SDS011;3533;51.246;6.850;2023-03-01T16:21:14;2.10;;;2.00;;
6985;SDS011;3533;51.246;6.850;2023-03-01T16:23:47;2.77;;;2.50;;
6985;SDS011;3533;51.246;6.850;2023-03-01T16:26:13;1.90;;;1.80;;
6985;SDS011;3533;51.246;6.850;2023-03-01T16:28:39;3.97;;;2.33;;
6985;SDS011;3533;51.246;6.850;2023-03-01T16:31:06;2.23;;;1.80;;
6985;SDS011;3533;51.246;6.850;2023-03-01T16:33:31;2.17;;;2.07;;
6985;SDS011;3533;51.246;6.850;2023-03-01T16:35:58;1.93;;;1.83;;
6985;SDS011;3533;51.246;6.850;2023-03-01T16:38:28;2.23;;;2.03;;
6985;SDS011;3533;51.246;6.850;2023-03-01T16:40:56;2.00;;;1.90;;
6985;SDS011;3533;51.246;6.850;2023-03-01T16:43:21;2.30;;;1.80;;
6985;SDS011;3533;51.246;6.850;2023-03-01T16:45:47;2.17;;;1.80;;
6985;SDS011;3533;51.246;6.850;2023-03-01T16:48:13;1.87;;;1.77;;
6985;SDS011;3533;51.246;6.850;2023-03-01T16:50:39;2.10;;;1.90;;
6985;SDS011;3533;51.246;6.850;2023-03-01T16:53:04;2.20;;;2.10;;
6985;SDS011;3533;51.246;6.850;2023-03-01T16:55:30;3.17;;;1.60;;
6985;SDS011;3533;51.246;6.850;2023-03-01T16:57:56;3.93;;;1.70;;
6985;SDS011;3533;51.246;6.850;2023-03-01T17:00:21;2.40;;;2.20;;
6985;SDS011;3533;51.246;6.850;2023-03-01T17:02:47;1.90;;;1.80;;
6985;SDS011;3533;51.246;6.850;2023-03-01T17:05:13;2.03;;;1.63;;
6985;SDS011;3533;51.246;6.850;2023-03-01T17:07:39;2.10;;;2.00;;
6985;SDS011;3533;51.246;6.850;2023-03-01T17:10:06;10.73;;;2.70;;
6985;SDS011;3533;51.246;6.850;2023-03-01T17:12:33;2.80;;;1.90;;
6985;SDS011;3533;51.246;6.850;2023-03-01T17:14:59;2.17;;;1.97;;
6985;SDS011;3533;51.246;6.850;2023-03-01T17:17:24;2.00;;;1.70;;
6985;SDS011;3533;51.246;6.850;2023-03-01T17:19:50;2.40;;;1.57;;
6985;SDS011;3533;51.246;6.850;2023-03-01T17:22:16;4.20;;;1.63;;